Station: Biloela  

  Atmospheric Gas Attenuation - ITU Rec 676-11   ----------------- dB/100km -----------------
Date Time Temp RH % AH g/m3 Dew Point Wind Direction Speed kph Gust kph Barometer mB Rainfall Since 9am 24GHz 47GHz 76GHz 122GHz 134GHz 241GHz
08/05 12:30 21.8 15 2.88 -5.9 13 20 1019.6 0 7.3 16.4 17.8 45.5 28.1 92.5
08/05 12:20 21.2 15 2.78 -6.4 13 15 1019.9 0 7.1 16.4 17.6 45.1 27.4 89.8
08/05 12:10 21.5 16 3.02 -5.3 9 11 1020.1 0 7.6 16.6 18.3 46.8 29.6 97.6
08/05 12:00 20.2 16 2.8 -6.4 15 24 1020.4 0 7.2 16.6 17.9 45.8 27.9 91.5
08/05 11:50 20.3 16 2.81 -6.3 11 13 1020.5 0 7.2 16.6 17.9 45.9 28.0 91.8
08/05 11:40 19.9 16 2.75 -6.6 15 17 1020.5 0 7.1 16.6 17.8 45.6 27.6 90.1
08/05 11:30 19.4 17 2.84 -6.2 13 22 1020.7 0 7.3 16.8 18.2 46.6 28.6 93.8
08/05 11:20 19.5 17 2.85 -6.2 13 20 1020.9 0 7.3 16.8 18.2 46.6 28.7 94.0
08/05 11:10 19 17 2.77 -6.6 17 20 1021.2 0 7.1 16.8 18.1 46.3 28.1 91.8
08/05 11:00 19.8 19 3.25 -4.5 13 24 1021.6 0 8.1 17.2 19.3 49.7 32.5 107.7
08/05 10:50 18.4 19 2.99 -5.6 19 24 1021.6 0 7.6 17.2 18.9 48.4 30.5 100.2
08/05 10:40 18.7 20 3.2 -4.7 11 13 1021.7 0 8.0 17.4 19.4 49.9 32.5 107.3
08/05 10:30 18 22 3.38 -4 7 15 1021.9 0 8.4 17.7 20.2 51.9 34.6 114.7
08/05 10:20 17.5 19 2.83 -6.3 17 22 1022.2 0 7.3 17.1 18.6 47.7 29.2 95.7
08/05 10:10 17.3 21 3.09 -5.2 17 24 1022.3 0 7.8 17.5 19.4 49.9 31.9 105.2
08/05 10:00 16.9 23 3.31 -4.3 17 28 1022.6 0 8.3 17.9 20.2 52.0 34.3 113.7
08/05 09:50 16 24 3.27 -4.5 19 24 1022.6 0 8.3 18.0 20.3 52.2 34.3 113.4
08/05 09:40 15.8 25 3.37 -4.2 20 28 1022.7 0 8.5 18.2 20.7 53.2 35.4 117.4
08/05 09:30 16.4 27 3.77 -2.6 15 24 1022.8 0 9.3 18.6 21.8 56.2 39.4 131.4
08/05 09:20 15.9 28 3.79 -2.6 11 15 1023 0 9.3 18.7 22.0 56.8 39.8 133.0
08/05 09:10 14.3 29 3.56 -3.5 15 20 1023 0 8.9 18.7 21.7 55.9 38.1 126.8
08/05 09:00 14.8 29 3.67 -3 17 28 1023 0 9.1 18.8 21.9 56.5 39.1 130.2
08/05 08:50 14.4 30 3.71 -2.9 17 24 1023 0 9.2 18.9 22.1 57.1 39.7 132.3
08/05 08:40 14 30 3.62 -3.3 19 24 1023 0 9.0 18.8 22.0 56.6 38.9 129.5
08/05 08:30 13.8 31 3.69 -3 17 30 1023 0 9.2 19.0 22.2 57.3 39.8 132.5
08/05 08:20 13.6 32 3.77 -2.8 20 30 1022.9 0 9.4 19.1 22.6 58.2 40.7 135.9
08/05 08:10 13.3 34 3.93 -2.2 17 20 1022.8 0 9.7 19.4 23.2 59.8 42.7 142.6
08/05 08:00 12.9 35 3.95 -2.2 11 22 1022.8 0 9.8 19.5 23.3 60.3 43.1 144.1
08/05 07:50 12.7 38 4.23 -1.2 7 11 1022.6 0 10.4 19.9 24.3 63.0 46.3 155.5
08/05 07:40 12.3 39 4.24 -1.2 9 15 1022.6 0 10.4 20.0 24.5 63.4 46.7 156.7
08/05 07:30 12.2 40 4.32 -1 9 17 1022.6 0 10.6 20.2 24.8 64.2 47.7 160.1
08/05 07:20 11.7 40 4.18 -1.4 15 22 1022.5 0 10.3 20.1 24.5 63.3 46.3 155.4
08/05 07:10 11.4 42 4.31 -1 9 11 1022.4 0 10.6 20.3 25.0 64.7 48.0 161.2
08/05 07:00 11 41 4.1 -1.7 7 15 1022.3 0 10.1 20.1 24.4 63.1 45.8 153.4
08/05 06:50 10.9 41 4.08 -1.8 9 11 1022.2 0 10.1 20.1 24.3 63.0 45.6 152.8
08/05 06:40 10.7 42 4.13 -1.7 7 11 1022.1 0 10.2 20.2 24.6 63.6 46.3 155.2
08/05 06:30 10.7 41 4.03 -2 9 17 1021.8 0 10.0 20.1 24.2 62.6 45.2 151.1
08/05 06:20 11.1 41 4.13 -1.6 13 20 1021.7 0 10.2 20.1 24.4 63.2 46.1 154.4
08/05 06:10 11 42 4.2 -1.4 15 22 1021.7 0 10.3 20.2 24.7 64.0 46.9 157.4
08/05 06:00 11.1 44 4.43 -0.7 11 24 1021.4 0 10.8 20.5 25.5 66.0 49.5 166.6
08/05 05:50 11 49 4.91 0.7 13 15 1021.2 0 11.8 21.2 27.2 70.7 55.2 186.7
08/05 05:40 10.1 60 5.68 2.7 11 13 1021.1 0 13.5 22.6 30.4 79.1 65.3 221.9
08/05 05:30 9.7 64 5.9 3.2 6 11 1020.9 0 14.0 23.0 31.3 81.7 68.4 232.7
08/05 05:20 10.1 66 6.24 4 7 11 1020.8 0 14.7 23.4 32.5 84.8 72.3 246.6
08/05 05:10 10.6 64 6.25 4.1 6 7 1020.5 0 14.7 23.3 32.3 84.3 72.0 245.5
08/05 05:00 11 63 6.31 4.2 6 11 1020.4 0 14.8 23.3 32.4 84.5 72.4 246.9
08/05 04:50 11.2 63 6.39 4.4 7 11 1020.2 0 15.0 23.4 32.6 85.1 73.2 249.7
08/05 04:40 11.8 61 6.42 4.5 7 9 1020.2 0 15.0 23.3 32.5 84.8 73.0 249.2
08/05 04:30 12.2 59 6.37 4.4 7 11 1020.2 0 14.9 23.1 32.1 83.8 72.0 245.8
08/05 04:20 12.6 57 6.31 4.3 7 9 1020 0 14.8 22.9 31.7 82.8 70.9 241.9
08/05 04:10 12.9 56 6.31 4.3 7 9 1020 0 14.7 22.8 31.6 82.5 70.6 241.0
08/05 04:00 13.1 56 6.39 4.5 11 20 1020 0 14.9 22.9 31.8 83.1 71.4 243.8
08/05 03:50 13 57 6.46 4.7 9 15 1019.9 0 15.1 23.0 32.1 83.9 72.4 247.2
08/05 03:40 12.9 58 6.54 4.8 7 7 1019.8 0 15.2 23.1 32.5 84.8 73.5 250.9
08/05 03:30 13 58 6.58 4.9 9 15 1019.7 0 15.3 23.2 32.6 85.0 73.9 252.3
08/05 03:20 11.8 63 6.63 5 7 11 1019.7 0 15.5 23.6 33.3 86.8 75.6 258.4
08/05 03:10 11.4 64 6.57 4.8 4 6 1019.5 0 15.4 23.6 33.2 86.6 75.2 256.9
08/05 03:00 11.2 64 6.49 4.7 4 9 1019.5 0 15.2 23.5 33.0 86.0 74.4 254.0
08/05 02:50 11.8 62 6.53 4.8 7 9 1019.4 0 15.3 23.4 32.9 85.8 74.3 253.9
08/05 02:40 12.3 60 6.52 4.8 6 7 1019.5 0 15.2 23.3 32.6 85.2 73.8 251.9
08/05 02:30 12.7 58 6.46 4.7 9 13 1019.4 0 15.1 23.1 32.2 84.1 72.6 248.0
08/05 02:20 12.8 58 6.5 4.8 11 13 1019.2 0 15.2 23.1 32.3 84.4 73.0 249.4
08/05 02:10 13.2 58 6.66 5.1 6 7 1019.1 0 15.5 23.2 32.8 85.6 74.6 255.1
08/05 02:00 13.1 58 6.62 5 7 11 1019.1 0 15.4 23.2 32.7 85.3 74.2 253.6
08/05 01:50 13.1 57 6.5 4.8 6 6 1019 0 15.1 23.0 32.2 84.1 72.7 248.4
08/05 01:40 12.5 59 6.49 4.7 11 11 1019.1 0 15.1 23.1 32.4 84.6 73.2 249.8
08/05 01:30 13 57 6.46 4.7 4 11 1019 0 15.1 23.0 32.1 83.8 72.3 247.0
08/05 01:20 12.7 58 6.46 4.7 2 6 1019 0 15.1 23.0 32.2 84.1 72.6 247.9
08/05 01:10 12.8 60 6.72 5.2 7 13 1019 0 15.6 23.4 33.2 86.6 75.8 258.9
08/05 01:00 12.5 64 7.04 5.9 4 7 1019 0 16.3 24.0 34.5 90.2 80.1 274.1
08/05 00:50 12.4 69 7.54 6.9 4 6 1019.2 0 17.4 24.8 36.5 95.6 86.6 297.0
08/05 00:40 12.7 65 7.24 6.3 7 9 1019.1 0 16.7 24.3 35.2 92.1 82.4 282.4
08/05 00:30 13 65 7.37 6.6 6 9 1019.2 0 17.0 24.4 35.6 93.1 83.8 287.2
08/05 00:20 13 67 7.6 7 7 7 1019.2 0 17.5 24.7 36.5 95.5 86.7 297.5
08/05 00:10 13.2 65 7.46 6.8 7 7 1019.3 0 17.2 24.5 35.8 93.8 84.7 290.5
08/05 00:00 13.7 63 7.46 6.8 7 11 1019.3 0 17.2 24.3 35.6 93.2 84.2 288.7
07/05 23:50 14.6 57 7.13 6.2 4 6 1019.3 0 16.4 23.6 34.0 88.8 79.1 271.0
07/05 23:40 15.3 53 6.92 5.8 6 7 1019.2 0 15.9 23.1 32.9 85.9 75.8 259.6
07/05 23:30 16.4 49 6.84 5.7 6 13 1019.1 0 15.7 22.7 32.2 84.0 73.8 252.7
07/05 23:20 16.2 50 6.89 5.8 2 4 1019.2 0 15.8 22.8 32.4 84.7 74.6 255.4
07/05 23:10 17 47 6.8 5.6 9 11 1019.2 0 15.6 22.5 31.8 83.0 72.8 249.1
07/05 23:00 16.7 49 6.96 5.9 6 11 1019.1 0 16.0 22.8 32.5 84.8 75.0 256.8
07/05 22:50 16.6 52 7.35 6.7 6 7 1019.1 0 16.8 23.4 33.9 88.8 79.8 273.6
07/05 22:40 16.3 55 7.63 7.3 9 11 1019.1 0 17.4 23.9 35.1 91.9 83.5 286.7
07/05 22:30 14.2 64 7.82 7.5 4 7 1019.1 0 17.9 24.8 36.8 96.3 88.2 302.9
07/05 22:20 14.6 62 7.76 7.4 0 0 1019.1 0 17.8 24.6 36.4 95.2 87.0 298.7
07/05 22:10 15.7 58 7.76 7.5 0 0 1019.1 0 17.7 24.3 35.9 93.9 85.8 294.6
07/05 22:00 16 57 7.77 7.5 0 2 1019.2 0 17.7 24.2 35.8 93.7 85.6 293.9
07/05 21:50 16 57 7.77 7.5 0 0 1019 0 17.7 24.2 35.8 93.6 85.6 293.9
07/05 21:40 16.3 56 7.77 7.5 0 4 1019 0 17.7 24.1 35.6 93.3 85.3 292.8
07/05 21:30 17.1 54 7.86 7.7 4 13 1019 0 17.9 24.0 35.6 93.3 85.5 293.8
07/05 21:20 16.8 55 7.86 7.7 7 7 1018.9 0 17.9 24.1 35.8 93.6 85.8 294.8
07/05 21:10 17.6 53 7.95 7.9 9 11 1019 0 18.0 24.0 35.7 93.6 86.1 295.8
07/05 21:00 16.4 56 7.82 7.6 9 11 1018.9 0 17.8 24.2 35.8 93.7 85.8 294.6
07/05 20:50 16.4 56 7.82 7.6 9 9 1018.8 0 17.8 24.1 35.8 93.7 85.8 294.5
07/05 20:40 16.9 55 7.91 7.8 7 7 1018.7 0 18.0 24.1 35.9 94.0 86.3 296.6
07/05 20:30 16.6 55 7.77 7.5 9 13 1018.7 0 17.7 24.0 35.5 92.9 84.9 291.6
07/05 20:20 17 54 7.81 7.6 9 11 1018.6 0 17.8 24.0 35.5 92.8 85.0 291.9
07/05 20:10 16.8 55 7.86 7.7 7 9 1018.6 0 17.9 24.1 35.7 93.6 85.8 294.8
07/05 20:00 17.7 52 7.85 7.7 6 9 1018.7 0 17.8 23.8 35.3 92.4 84.7 291.1

Last Refresh: 08-May-2026 12:07:31

Bureau of Meteorology